Terminal Aerodrome Forecast
Issued by NWS Tiyan, Guam

Home | Current Version | Previous Version | Text Only | Print | Product List | Glossary On
Versions: 1 2 3 4 5 6 7 8 9 10 11 12 13 14 15 16 17 18 19 20 21 22 23 24 25
000
FTPQ31 PGUM 182300
TAFPQ
TAF
PGUM 182328Z 1900/2006 06018G28KT P6SM VCSH SCT022 SCT050
     FM190800 07013G20KT P6SM VCSH SCT020 SCT050
     FM200100 07015G25KT P6SM VCSH SCT022 SCT050=

USA.gov is the U.S. government's official web portal to all federal, state and local government web resources and services.